< Typhoon 201704 2017 Season Typhoon 201706 >
Typhoon 201705 (NORU)
General InformationTrack Information on Google MapsDetailed Wind InformationForecast History on Google MapsAccess Analytics MapList of All Images || NewsDisaster Info.WeblogTrackbackTyphoon FrontTwiphoonTyphoon Now!Typhoon ImaginationJMA Disaster Info. XMLResourceGoogle EarthGE AnimationAtom FeedGeoJSON
Detalied Best Track (Time Zone = UTC)
Year Month Day Hour Lat. Long. Pressure (hPa) Wind (kt) Class Image Chart
2017 7 19 06 26.1 162.1 1010 0 2 Image Chart
2017 7 19 12 26.2 161.7 1010 0 2 Image Chart
2017 7 19 18 26.4 161.2 1008 0 2 Image Chart
2017 7 20 00 26.9 160.6 1008 0 2 Image Chart
2017 7 20 06 27.2 159.9 1008 0 2 Image Chart
2017 7 20 12 27.4 159.0 1006 35 3 Image Chart
2017 7 20 18 27.6 158.4 1006 35 3 Image Chart
2017 7 21 00 28.0 157.5 1006 35 3 Image Chart
2017 7 21 06 28.2 156.6 1006 35 3 Image Chart
2017 7 21 12 28.3 155.5 1004 35 3 Image Chart
2017 7 21 18 28.5 154.3 1000 40 3 Image Chart
2017 7 22 00 28.6 153.7 1000 40 3 Image Chart
2017 7 22 06 28.7 153.2 998 40 3 Image Chart
2017 7 22 12 28.7 152.5 994 45 3 Image Chart
2017 7 22 18 28.6 151.9 990 50 4 Image Chart
2017 7 23 00 28.3 151.4 985 55 4 Image Chart
2017 7 23 06 28.1 151.2 980 60 4 Image Chart
2017 7 23 12 28.0 151.4 975 65 5 Image Chart
2017 7 23 18 27.6 151.6 975 65 5 Image Chart
2017 7 24 00 27.2 152.2 970 70 5 Image Chart
2017 7 24 06 26.7 153.0 970 70 5 Image Chart
2017 7 24 12 26.2 154.1 970 70 5 Image Chart
2017 7 24 18 25.9 155.5 970 70 5 Image Chart
2017 7 25 00 25.7 156.7 970 70 5 Image Chart
2017 7 25 06 25.9 157.6 970 70 5 Image Chart
2017 7 25 12 26.2 158.2 975 65 5 Image Chart
2017 7 25 18 27.0 158.4 975 65 5 Image Chart
2017 7 26 00 28.0 157.9 975 65 5 Image Chart
2017 7 26 06 29.0 157.1 975 65 5 Image Chart
2017 7 26 12 29.8 155.6 975 65 5 Image Chart
2017 7 26 18 30.4 154.1 975 65 5 Image Chart
2017 7 27 00 30.7 152.1 975 65 5 Image Chart
2017 7 27 06 31.0 150.5 975 65 5 Image Chart
2017 7 27 12 30.7 148.5 975 65 5 Image Chart
2017 7 27 18 30.4 146.8 975 65 5 Image Chart
2017 7 28 00 29.6 145.2 975 60 4 Image Chart
2017 7 28 06 28.9 144.5 975 60 4 Image Chart
2017 7 28 09 28.6 144.0 975 60 4 Image Chart
2017 7 28 12 28.3 143.8 975 60 4 Image Chart
2017 7 28 15 28.0 143.6 975 60 4 Image Chart
2017 7 28 18 27.7 143.5 975 60 4 Image Chart
2017 7 28 21 27.4 143.2 975 60 4 Image Chart
2017 7 29 00 27.1 142.9 975 60 4 Image Chart
2017 7 29 03 26.6 142.5 975 60 4 Image Chart
2017 7 29 06 26.2 142.2 975 60 4 Image Chart
2017 7 29 09 25.8 142.1 975 60 4 Image Chart
2017 7 29 12 25.3 141.9 975 60 4 Image Chart
2017 7 29 18 24.5 141.9 975 60 4 Image Chart
2017 7 30 00 23.9 141.7 970 65 5 Image Chart
2017 7 30 06 23.4 141.5 965 70 5 Image Chart
2017 7 30 12 22.9 141.4 955 75 5 Image Chart
2017 7 30 18 22.8 140.9 945 85 5 Image Chart
2017 7 31 00 22.8 140.4 935 95 5 Image Chart
2017 7 31 06 22.9 139.9 935 95 5 Image Chart
2017 7 31 12 23.0 139.3 935 95 5 Image Chart
2017 7 31 18 23.3 138.8 935 95 5 Image Chart
2017 8 1 00 23.7 138.2 935 95 5 Image Chart
2017 8 1 06 24.1 137.7 940 90 5 Image Chart
2017 8 1 12 24.4 137.3 940 90 5 Image Chart
2017 8 1 18 25.0 136.7 940 90 5 Image Chart
2017 8 2 00 25.4 136.4 940 90 5 Image Chart
2017 8 2 06 25.8 135.9 940 90 5 Image Chart
2017 8 2 12 26.1 135.7 940 90 5 Image Chart
2017 8 2 18 26.7 135.5 940 90 5 Image Chart
2017 8 3 00 27.4 135.0 945 85 5 Image Chart
2017 8 3 06 27.9 134.1 945 85 5 Image Chart
2017 8 3 12 28.1 133.5 950 80 5 Image Chart
2017 8 3 15 28.2 132.9 950 80 5 Image Chart
2017 8 3 18 28.3 132.5 955 75 5 Image Chart
2017 8 3 21 28.4 132.0 955 75 5 Image Chart
2017 8 4 00 28.5 131.6 955 75 5 Image Chart
2017 8 4 03 28.6 131.4 955 75 5 Image Chart
2017 8 4 06 28.7 131.2 960 70 5 Image Chart
2017 8 4 09 28.8 131.1 960 70 5 Image Chart
2017 8 4 12 28.9 130.9 960 70 5 Image Chart
2017 8 4 15 29.1 130.6 960 70 5 Image Chart
2017 8 4 18 29.2 130.5 960 70 5 Image Chart
2017 8 4 21 29.3 130.4 960 70 5 Image Chart
2017 8 5 00 29.6 130.3 965 65 5 Image Chart
2017 8 5 03 29.8 130.2 965 65 5 Image Chart
2017 8 5 06 29.9 130.1 965 65 5 Image Chart
2017 8 5 09 30.0 130.1 965 65 5 Image Chart
2017 8 5 12 30.1 130.1 970 60 4 Image Chart
2017 8 5 15 29.8 130.2 970 60 4 Image Chart
2017 8 5 17 30.3 130.4 970 60 4 Image Chart
2017 8 5 18 30.3 130.5 970 60 4 Image Chart
2017 8 5 21 30.4 130.7 970 60 4 Image Chart
2017 8 6 00 30.7 130.9 970 60 4 Image Chart
2017 8 6 03 30.9 131.2 970 60 4 Image Chart
2017 8 6 06 31.1 131.5 970 60 4 Image Chart
2017 8 6 09 31.4 131.9 970 60 4 Image Chart
2017 8 6 12 31.8 132.3 970 60 4 Image Chart
2017 8 6 15 32.2 132.5 970 60 4 Image Chart
2017 8 6 18 32.5 132.9 970 60 4 Image Chart
2017 8 6 21 32.8 133.4 970 60 4 Image Chart
2017 8 7 00 33.1 134.0 970 60 4 Image Chart
2017 8 7 01 33.3 134.2 970 60 4 Image Chart
2017 8 7 03 33.6 134.6 970 60 4 Image Chart
2017 8 7 06 34.0 135.1 975 55 4 Image Chart
2017 8 7 09 34.5 135.7 975 55 4 Image Chart
2017 8 7 12 35.2 136.2 980 50 4 Image Chart
2017 8 7 15 35.6 136.5 985 45 3 Image Chart
2017 8 7 18 36.2 136.8 985 40 3 Image Chart
2017 8 7 21 37.1 137.4 985 40 3 Image Chart
2017 8 8 00 37.3 137.7 985 35 3 Image Chart
2017 8 8 03 37.5 137.8 985 35 3 Image Chart
2017 8 8 06 37.7 138.1 988 35 3 Image Chart
2017 8 8 09 38.4 138.3 990 35 3 Image Chart
2017 8 8 12 38.7 138.5 990 0 6 Image Chart
2017 8 8 18 39.0 139.0 992 0 6 Image Chart
2017 8 9 00 39.2 139.2 994 0 6 Image Chart
2017 8 9 06 39.2 139.3 996 0 6 Image Chart
Japan Meteorological Agency Best Track Data | Correction Date : 2017-09-29
< Typhoon 201704 2017 Season Typhoon 201706 >

Help